createdAt,value
2017-08-26T00:00:48.764Z,14.64
2017-08-26T00:01:48.468Z,14.69
2017-08-26T00:02:48.804Z,14.69
2017-08-26T00:03:48.502Z,14.72
2017-08-26T00:04:48.861Z,14.51
2017-08-26T00:06:03.476Z,14.6
2017-08-26T00:06:48.902Z,14.6
2017-08-26T00:07:48.925Z,14.61
2017-08-26T00:08:48.948Z,14.51
2017-08-26T00:09:48.647Z,14.64
2017-08-26T00:10:48.662Z,14.64
2017-08-26T00:11:49.027Z,14.64
2017-08-26T00:12:49.022Z,14.65
2017-08-26T00:14:03.655Z,14.6
2017-08-26T00:14:49.087Z,14.68
2017-08-26T00:17:03.735Z,14.6
2017-08-26T00:17:49.144Z,14.58
2017-08-26T00:18:48.867Z,14.55
2017-08-26T00:19:49.197Z,14.52
2017-08-26T00:20:49.223Z,14.42
2017-08-26T00:21:49.247Z,14.4
2017-08-26T00:22:49.276Z,14.43
2017-08-26T00:23:49.294Z,14.39
2017-08-26T00:24:48.999Z,14.43
2017-08-26T00:25:49.325Z,14.37
2017-08-26T00:26:49.363Z,14.4
2017-08-26T00:27:49.389Z,14.4
2017-08-26T00:28:49.403Z,14.39
2017-08-26T00:30:04.036Z,14.46
2017-08-26T00:30:49.457Z,14.5
2017-08-26T00:31:49.154Z,14.39
2017-08-26T00:32:49.499Z,14.46
2017-08-26T00:33:49.205Z,14.42
2017-08-26T00:34:49.548Z,14.37
2017-08-26T00:35:49.564Z,14.43
2017-08-26T00:36:49.579Z,14.32
2017-08-26T00:38:04.213Z,14.25
2017-08-26T00:38:49.622Z,14.22
2017-08-26T00:39:49.351Z,14.17
2017-08-26T00:40:49.683Z,14.17
2017-08-26T00:41:49.391Z,14.2
2017-08-26T00:42:49.729Z,14.17
2017-08-26T00:43:49.743Z,14.32
2017-08-26T00:45:04.385Z,14.28
2017-08-26T00:45:49.790Z,14.22
2017-08-26T00:46:49.823Z,14.15
2017-08-26T00:47:49.847Z,14.21
2017-08-26T00:48:49.868Z,14.09
2017-08-26T00:49:49.893Z,14.06
2017-08-26T00:50:49.919Z,14.14
2017-08-26T00:51:49.920Z,14.12
2017-08-26T00:53:49.986Z,14.14
2017-08-26T00:55:04.603Z,14.2
2017-08-26T00:55:50.027Z,14.28
2017-08-26T00:56:50.058Z,14.25
2017-08-26T00:57:50.077Z,14.2
2017-08-26T00:58:50.075Z,14.02
2017-08-26T00:59:49.792Z,14.1
2017-08-26T01:00:50.146Z,14.1
2017-08-26T01:01:50.156Z,14.15
2017-08-26T01:02:50.190Z,14.04
2017-08-26T01:03:50.205Z,14.09
2017-08-26T01:04:50.239Z,14.06
2017-08-26T01:06:04.858Z,14.1
2017-08-26T01:06:50.284Z,14.14
2017-08-26T01:07:50.305Z,14.21
2017-08-26T01:08:50.308Z,14.14
2017-08-26T01:09:49.712Z,14.17
2017-08-26T01:10:50.040Z,14.14
2017-08-26T01:11:50.408Z,14.06
2017-08-26T01:12:50.101Z,14.04
2017-08-26T01:13:50.446Z,14
2017-08-26T01:14:50.138Z,14.12
2017-08-26T01:15:50.495Z,14.06
2017-08-26T01:17:05.098Z,14.02
2017-08-26T01:18:50.557Z,13.92
2017-08-26T01:19:50.249Z,13.91
2017-08-26T01:20:50.286Z,13.87
2017-08-26T01:21:50.621Z,13.81
2017-08-26T01:22:50.650Z,13.79
2017-08-26T01:23:50.665Z,13.75
2017-08-26T01:24:50.671Z,13.91
2017-08-26T01:25:50.399Z,13.75
2017-08-26T01:27:05.332Z,13.73
2017-08-26T01:27:50.752Z,13.92
2017-08-26T01:28:50.782Z,13.75
2017-08-26T01:29:50.796Z,13.75
2017-08-26T01:30:50.843Z,13.69
2017-08-26T01:31:50.847Z,13.77
2017-08-26T01:33:05.468Z,13.64
2017-08-26T01:33:50.889Z,13.69
2017-08-26T01:34:50.900Z,13.6
2017-08-26T01:35:50.943Z,13.62
2017-08-26T01:36:50.958Z,13.59
2017-08-26T01:37:50.987Z,13.66
2017-08-26T01:38:51.008Z,13.69
2017-08-26T01:39:51.028Z,13.63
2017-08-26T01:40:51.041Z,13.7
2017-08-26T01:41:51.063Z,13.7
2017-08-26T01:42:51.101Z,13.69
2017-08-26T01:43:51.118Z,13.67
2017-08-26T01:44:51.144Z,13.67
2017-08-26T01:46:05.759Z,13.78
2017-08-26T01:46:51.201Z,13.78
2017-08-26T01:47:51.211Z,13.79
2017-08-26T01:49:05.831Z,13.81
2017-08-26T01:49:51.255Z,13.79
2017-08-26T01:50:51.282Z,13.82
2017-08-26T01:51:51.311Z,13.79
2017-08-26T01:52:51.309Z,13.77
2017-08-26T01:53:51.361Z,13.69
2017-08-26T01:56:05.992Z,13.66
2017-08-26T01:56:51.414Z,13.63
2017-08-26T01:57:51.436Z,13.59
2017-08-26T01:58:51.128Z,13.67
2017-08-26T01:59:51.485Z,13.57
2017-08-26T02:00:51.495Z,13.6
2017-08-26T02:01:51.535Z,13.64
2017-08-26T02:03:06.142Z,13.67
2017-08-26T02:03:51.582Z,13.63
2017-08-26T02:05:06.192Z,13.66
2017-08-26T02:05:51.600Z,13.54
2017-08-26T02:06:51.323Z,13.54
2017-08-26T02:07:51.653Z,13.52
2017-08-26T02:09:06.290Z,13.66
2017-08-26T02:09:51.705Z,13.59
2017-08-26T02:10:51.414Z,13.63
2017-08-26T02:11:51.751Z,13.52
2017-08-26T02:12:51.767Z,13.55
2017-08-26T02:13:51.788Z,13.54
2017-08-26T02:15:06.421Z,13.54
2017-08-26T02:15:51.838Z,13.59
2017-08-26T02:17:51.581Z,13.57
2017-08-26T02:18:51.898Z,13.57
2017-08-26T02:20:06.537Z,13.44
2017-08-26T02:20:51.967Z,13.45
2017-08-26T02:21:51.668Z,13.46
2017-08-26T02:22:51.991Z,13.46
2017-08-26T02:23:51.719Z,13.48
2017-08-26T02:25:52.071Z,13.42
2017-08-26T02:28:06.711Z,13.38
2017-08-26T02:28:52.146Z,13.44
2017-08-26T02:29:52.161Z,13.44
2017-08-26T02:30:52.192Z,13.49
2017-08-26T02:31:52.189Z,13.49
2017-08-26T02:32:52.234Z,13.41
2017-08-26T02:33:52.247Z,13.42
2017-08-26T02:34:51.961Z,13.49
2017-08-26T02:35:52.290Z,13.39
2017-08-26T02:36:52.300Z,13.44
2017-08-26T02:37:52.331Z,13.48
2017-08-26T02:38:52.367Z,13.36
2017-08-26T02:39:52.393Z,13.48
2017-08-26T02:40:52.400Z,13.49
2017-08-26T02:41:52.433Z,13.39
2017-08-26T02:43:52.155Z,13.33
2017-08-26T02:44:52.477Z,13.3
2017-08-26T02:45:52.517Z,13.36
2017-08-26T02:46:52.541Z,13.41
2017-08-26T02:47:52.568Z,13.33
2017-08-26T02:48:52.567Z,13.2
2017-08-26T02:49:52.622Z,13.23
2017-08-26T02:50:52.632Z,13.19
2017-08-26T02:52:07.247Z,13.3
2017-08-26T02:52:52.659Z,13.36
2017-08-26T02:53:52.708Z,13.28
2017-08-26T02:54:52.713Z,13.29
2017-08-26T02:55:52.752Z,13.3
2017-08-26T02:56:52.762Z,13.38
2017-08-26T02:57:52.786Z,13.33
2017-08-26T02:58:52.800Z,13.32
2017-08-26T02:59:52.811Z,13.36
2017-08-26T03:00:52.855Z,13.32
2017-08-26T03:01:52.875Z,13.22
2017-08-26T03:02:52.906Z,13.2
2017-08-26T03:03:52.911Z,13.41
2017-08-26T03:04:52.975Z,13.33
2017-08-26T03:05:52.966Z,13.29
2017-08-26T03:06:52.995Z,13.38
2017-08-26T03:08:07.292Z,13.22
2017-08-26T03:08:53.033Z,13.17
2017-08-26T03:10:53.063Z,13.19
2017-08-26T03:11:53.097Z,13.12
2017-08-26T03:12:53.120Z,13.1
2017-08-26T03:13:53.157Z,13.15
2017-08-26T03:14:53.165Z,13.23
2017-08-26T03:15:53.185Z,13.23
2017-08-26T03:16:53.211Z,13.17
2017-08-26T03:18:07.508Z,13.1
2017-08-26T03:18:53.266Z,13.23
2017-08-26T03:19:52.976Z,13.19
2017-08-26T03:20:53.296Z,13.28
2017-08-26T03:21:53.329Z,13.25
2017-08-26T03:22:53.336Z,13.25
2017-08-26T03:24:07.962Z,13.22
2017-08-26T03:24:53.384Z,13.19
2017-08-26T03:26:53.445Z,13.14
2017-08-26T03:27:53.446Z,13.2
2017-08-26T03:28:53.491Z,13.2
2017-08-26T03:29:53.490Z,13.2
2017-08-26T03:31:08.123Z,13.03
2017-08-26T03:31:53.547Z,13.04
2017-08-26T03:32:53.583Z,13.08
2017-08-26T03:34:53.294Z,13.07
2017-08-26T03:36:08.230Z,13.05
2017-08-26T03:36:53.648Z,13
2017-08-26T03:37:53.675Z,13.01
2017-08-26T03:38:53.690Z,13.03
2017-08-26T03:40:08.006Z,12.96
2017-08-26T03:40:53.759Z,12.93
2017-08-26T03:41:53.776Z,12.9
2017-08-26T03:42:53.792Z,12.92
2017-08-26T03:43:53.820Z,12.95
2017-08-26T03:44:53.520Z,12.89
2017-08-26T03:45:53.544Z,12.92
2017-08-26T03:46:53.881Z,13.03
2017-08-26T03:47:53.899Z,13.11
2017-08-26T03:48:53.938Z,13.05
2017-08-26T03:49:53.952Z,13.14
2017-08-26T03:50:53.661Z,13.11
2017-08-26T03:51:53.984Z,13.15
2017-08-26T03:52:54.022Z,13.22
2017-08-26T03:53:54.035Z,13.19
2017-08-26T03:55:08.656Z,13.17
2017-08-26T03:55:54.069Z,13.1
2017-08-26T03:56:54.110Z,13.05
2017-08-26T03:57:54.127Z,13.05
2017-08-26T03:58:54.126Z,13.05
2017-08-26T04:00:08.774Z,13.04
2017-08-26T04:00:54.196Z,13.04
2017-08-26T04:02:54.228Z,13.12
2017-08-26T04:03:53.942Z,13.12
2017-08-26T04:04:54.286Z,13.17
2017-08-26T04:06:54.340Z,13.22
2017-08-26T04:07:54.342Z,13.22
2017-08-26T04:08:54.051Z,13.2
2017-08-26T04:09:54.399Z,13.23
2017-08-26T04:10:54.413Z,13.19
2017-08-26T04:11:54.429Z,13.29
2017-08-26T04:12:54.463Z,13.22
2017-08-26T04:13:54.475Z,13.23
2017-08-26T04:14:54.506Z,13.3
2017-08-26T04:15:54.204Z,13.32
2017-08-26T04:16:54.554Z,13.22
2017-08-26T04:17:54.554Z,13.28
2017-08-26T04:18:54.599Z,13.32
2017-08-26T04:19:54.620Z,13.23
2017-08-26T04:20:54.650Z,13.23
2017-08-26T04:21:54.669Z,13.26
2017-08-26T04:22:54.974Z,13.25
2017-08-26T04:23:54.696Z,13.15
2017-08-26T04:24:54.721Z,13.36
2017-08-26T04:25:54.737Z,13.3
2017-08-26T04:27:09.375Z,13.3
2017-08-26T04:27:54.809Z,13.42
2017-08-26T04:28:54.819Z,13.39
2017-08-26T04:29:54.513Z,13.39
2017-08-26T04:30:54.856Z,13.49
2017-08-26T04:31:54.881Z,13.46
2017-08-26T04:32:54.593Z,13.44
2017-08-26T04:33:54.929Z,13.46
2017-08-26T04:34:54.928Z,13.42
2017-08-26T04:36:54.992Z,13.49
2017-08-26T04:38:09.615Z,13.66
2017-08-26T04:38:55.033Z,13.62
2017-08-26T04:39:55.062Z,13.6
2017-08-26T04:40:55.087Z,13.6
2017-08-26T04:41:54.803Z,13.62
2017-08-26T04:43:09.722Z,13.67
2017-08-26T04:43:55.162Z,13.82
2017-08-26T04:44:55.155Z,13.81
2017-08-26T04:45:55.201Z,13.92
2017-08-26T04:46:55.207Z,14.07
2017-08-26T04:47:55.242Z,14.15
2017-08-26T04:48:54.948Z,14.5
2017-08-26T04:49:54.970Z,14.81
2017-08-26T04:50:54.977Z,15.06
2017-08-26T04:51:55.320Z,15.27
2017-08-26T04:52:55.352Z,15.51
2017-08-26T04:53:55.057Z,15.8
2017-08-26T04:54:55.087Z,15.92
2017-08-26T04:55:55.408Z,16.17
2017-08-26T04:56:55.447Z,16.27
2017-08-26T04:57:55.464Z,16.42
2017-08-26T04:59:10.097Z,16.53
2017-08-26T04:59:55.512Z,16.68
2017-08-26T05:00:55.544Z,17.01
2017-08-26T05:02:55.577Z,17.44
2017-08-26T05:03:55.608Z,17.63
2017-08-26T05:04:55.645Z,17.71
2017-08-26T05:05:55.649Z,17.78
2017-08-26T05:06:55.696Z,17.74
2017-08-26T05:08:10.317Z,17.74
2017-08-26T05:08:55.731Z,17.75
2017-08-26T05:09:55.442Z,17.55
2017-08-26T05:11:10.397Z,17.31
2017-08-26T05:11:55.814Z,17.22
2017-08-26T05:12:55.815Z,17.08
2017-08-26T05:13:55.870Z,16.93
2017-08-26T05:15:10.472Z,16.81
2017-08-26T05:15:55.597Z,16.68
2017-08-26T05:16:55.923Z,16.64
2017-08-26T05:17:55.953Z,16.5
2017-08-26T05:18:55.985Z,16.48
2017-08-26T05:19:56.011Z,16.49
2017-08-26T05:20:55.711Z,16.5
2017-08-26T05:21:56.046Z,16.42
2017-08-26T05:22:56.086Z,16.5
2017-08-26T05:24:56.134Z,16.57
2017-08-26T05:25:56.135Z,16.58
2017-08-26T05:26:56.176Z,16.58
2017-08-26T05:27:56.198Z,16.64
2017-08-26T05:28:55.909Z,16.66
2017-08-26T05:30:10.842Z,16.76
2017-08-26T05:30:56.271Z,16.81
2017-08-26T05:31:56.293Z,16.89
2017-08-26T05:34:10.934Z,17.03
2017-08-26T05:34:56.371Z,17
2017-08-26T05:36:10.992Z,17.15
2017-08-26T05:36:56.091Z,17.15
2017-08-26T05:37:56.135Z,17.16
2017-08-26T05:38:56.463Z,17.15
2017-08-26T05:39:56.502Z,17.28
2017-08-26T05:40:56.517Z,17.59
2017-08-26T05:41:56.539Z,17.62
2017-08-26T05:42:56.564Z,17.54
2017-08-26T05:43:56.589Z,17.51
2017-08-26T05:44:56.596Z,17.41
2017-08-26T05:45:56.631Z,17.25
2017-08-26T05:46:56.646Z,17.41
2017-08-26T05:47:56.675Z,17.44
2017-08-26T05:48:56.709Z,17.43
2017-08-26T05:49:56.706Z,17.46
2017-08-26T05:50:56.766Z,17.49
2017-08-26T05:51:56.780Z,17.78
2017-08-26T05:52:56.484Z,18.02
2017-08-26T05:53:56.494Z,18.05
2017-08-26T05:54:56.858Z,18.42
2017-08-26T05:56:11.472Z,18.87
2017-08-26T05:56:56.913Z,18.85
2017-08-26T05:58:56.633Z,18.98
2017-08-26T05:59:56.969Z,19.16
2017-08-26T06:00:57.005Z,19.32
2017-08-26T06:02:11.864Z,19.61
2017-08-26T06:02:57.041Z,19.92
2017-08-26T06:03:57.064Z,19.86
2017-08-26T06:05:57.132Z,20.17
2017-08-26T06:07:11.741Z,20.59
2017-08-26T06:07:57.176Z,20.8
2017-08-26T06:08:56.875Z,21.06
2017-08-26T06:09:56.917Z,21.25
2017-08-26T06:11:11.537Z,21.25
2017-08-26T06:11:56.971Z,21.35
2017-08-26T06:12:56.661Z,21.38
2017-08-26T06:14:57.042Z,21.43
2017-08-26T06:15:57.400Z,21.56
2017-08-26T06:16:57.088Z,21.9
2017-08-26T06:18:12.048Z,22.17
2017-08-26T06:18:57.459Z,22.21
2017-08-26T06:19:57.480Z,22.36
2017-08-26T06:21:57.547Z,22.72
2017-08-26T06:22:57.586Z,22.94
2017-08-26T06:23:57.606Z,23.04
2017-08-26T06:24:57.643Z,23.12
2017-08-26T06:25:57.658Z,23.15
2017-08-26T06:27:12.294Z,23.42
2017-08-26T06:27:57.727Z,23.48
2017-08-26T06:28:57.740Z,23.54
2017-08-26T06:29:57.767Z,23.46
2017-08-26T06:30:57.820Z,23.4
2017-08-26T06:31:57.875Z,23.54
2017-08-26T06:32:57.559Z,23.57
2017-08-26T06:34:12.486Z,23.75
2017-08-26T06:34:57.937Z,23.68
2017-08-26T06:35:57.961Z,23.79
2017-08-26T06:37:12.595Z,23.72
2017-08-26T06:37:58.020Z,23.76
2017-08-26T06:38:58.059Z,23.78
2017-08-26T06:39:58.085Z,24.06
2017-08-26T06:40:57.776Z,24.12
2017-08-26T06:41:58.132Z,24.09
2017-08-26T06:42:58.167Z,24.08
2017-08-26T06:43:57.880Z,24.03
2017-08-26T06:44:58.228Z,24.05
2017-08-26T06:45:58.263Z,24.13
2017-08-26T06:47:58.331Z,23.87
2017-08-26T06:48:58.329Z,23.83
2017-08-26T06:50:13.004Z,23.83
2017-08-26T06:50:58.418Z,23.88
2017-08-26T06:51:58.438Z,24.32
2017-08-26T06:52:58.144Z,24.42
2017-08-26T06:53:58.495Z,24.61
2017-08-26T06:54:58.533Z,24.73
2017-08-26T06:55:58.567Z,24.9
2017-08-26T06:57:13.191Z,25.13
2017-08-26T06:58:12.905Z,25.24
2017-08-26T06:58:58.655Z,25.25
2017-08-26T06:59:58.354Z,25.73
2017-08-26T07:00:58.722Z,25.82
2017-08-26T07:01:58.747Z,25.55
2017-08-26T07:02:58.473Z,25.77
2017-08-26T07:03:58.809Z,25.8
2017-08-26T07:05:13.444Z,25.79
2017-08-26T07:05:58.882Z,25.91
2017-08-26T07:07:13.496Z,25.82
2017-08-26T07:07:58.952Z,25.91
2017-08-26T07:08:58.966Z,25.92
2017-08-26T07:09:59.012Z,26.21
2017-08-26T07:10:59.033Z,26.06
2017-08-26T07:11:58.434Z,26.06
2017-08-26T07:12:59.085Z,26.3
2017-08-26T07:13:58.808Z,26.3
2017-08-26T07:14:59.163Z,26.18
2017-08-26T07:15:58.887Z,26.02
2017-08-26T07:16:58.925Z,25.61
2017-08-26T07:17:58.936Z,25.05
2017-08-26T07:18:59.297Z,24.88
2017-08-26T07:19:59.014Z,24.71
2017-08-26T07:20:59.353Z,24.87
2017-08-26T07:21:59.387Z,24.6
2017-08-26T07:23:59.130Z,24.64
2017-08-26T07:24:59.476Z,24.61
2017-08-26T07:25:59.200Z,24.37
2017-08-26T07:26:59.551Z,24.28
2017-08-26T07:27:59.564Z,23.97
2017-08-26T07:28:59.612Z,23.87
2017-08-26T07:29:59.315Z,23.69
2017-08-26T07:30:59.669Z,23.65
2017-08-26T07:31:59.682Z,23.61
2017-08-26T07:32:59.729Z,23.57
2017-08-26T07:33:59.751Z,23.6
2017-08-26T07:34:59.784Z,23.48
2017-08-26T07:35:59.481Z,23.43
2017-08-26T07:37:14.428Z,23.48
2017-08-26T07:37:59.862Z,23.63
2017-08-26T07:38:59.896Z,23.9
2017-08-26T07:39:59.617Z,24.15
2017-08-26T07:40:59.950Z,24.39
2017-08-26T07:42:14.603Z,24.5
2017-08-26T07:43:00.004Z,24.8
2017-08-26T07:43:59.717Z,24.88
2017-08-26T07:45:00.072Z,25.24
2017-08-26T07:45:59.789Z,25.5
2017-08-26T07:47:14.722Z,25.76
2017-08-26T07:48:00.156Z,25.67
2017-08-26T07:49:00.183Z,25.55
2017-08-26T07:49:59.903Z,25.38
2017-08-26T07:51:00.240Z,25.14
2017-08-26T07:51:59.986Z,25.03
2017-08-26T07:53:14.897Z,24.84
2017-08-26T07:54:00.021Z,24.73
2017-08-26T07:54:59.729Z,24.78
2017-08-26T07:56:00.392Z,24.37
2017-08-26T07:57:00.102Z,24.43
2017-08-26T07:58:00.444Z,24.67
2017-08-26T08:00:00.505Z,25.05
2017-08-26T08:01:00.542Z,25.23
2017-08-26T08:02:00.550Z,25.3
2017-08-26T08:03:00.578Z,25.03
2017-08-26T08:04:15.219Z,25.1
2017-08-26T08:05:00.660Z,24.99
2017-08-26T08:06:00.675Z,24.83
2017-08-26T08:07:00.704Z,24.78
2017-08-26T08:08:00.723Z,24.65
2017-08-26T08:09:15.368Z,24.47
2017-08-26T08:10:00.468Z,24.43
2017-08-26T08:11:15.432Z,24.46
2017-08-26T08:12:00.540Z,24.57
2017-08-26T08:13:00.896Z,24.43
2017-08-26T08:14:00.916Z,24.39
2017-08-26T08:15:00.939Z,24.03
2017-08-26T08:16:00.960Z,23.75
2017-08-26T08:17:01.006Z,23.72
2017-08-26T08:18:01.021Z,23.65
2017-08-26T08:19:00.744Z,23.68
2017-08-26T08:20:01.089Z,23.72
2017-08-26T08:21:00.773Z,23.65
2017-08-26T08:22:00.826Z,23.63
2017-08-26T08:23:01.161Z,23.58
2017-08-26T08:24:00.871Z,23.55
2017-08-26T08:25:15.809Z,23.66
2017-08-26T08:26:01.251Z,23.53
2017-08-26T08:27:01.263Z,23.51
2017-08-26T08:28:00.669Z,23.6
2017-08-26T08:29:01.342Z,23.54
2017-08-26T08:31:01.383Z,23.28
2017-08-26T08:32:01.420Z,23.35
2017-08-26T08:33:01.446Z,23.33
2017-08-26T08:34:01.451Z,23.39
2017-08-26T08:35:01.176Z,23.35
2017-08-26T08:36:01.191Z,23.23
2017-08-26T08:37:01.547Z,23.12
2017-08-26T08:38:16.183Z,22.98
2017-08-26T08:40:16.230Z,22.98
2017-08-26T08:41:01.364Z,23.04
2017-08-26T08:42:01.360Z,23.13
2017-08-26T08:43:16.313Z,23.25
2017-08-26T08:44:01.724Z,23.23
2017-08-26T08:45:01.759Z,23.28
2017-08-26T08:46:01.783Z,23.38
2017-08-26T08:47:01.803Z,23.33
2017-08-26T08:48:01.530Z,23.32
2017-08-26T08:49:01.865Z,23.35
2017-08-26T08:51:01.913Z,23.48
2017-08-26T08:52:01.940Z,23.54
2017-08-26T08:53:01.646Z,23.75
2017-08-26T08:55:16.636Z,23.75
2017-08-26T08:56:01.729Z,23.69
2017-08-26T08:57:01.767Z,23.69
2017-08-26T08:58:02.097Z,23.61
2017-08-26T08:59:02.129Z,23.54
2017-08-26T09:00:02.150Z,23.7
2017-08-26T09:01:16.790Z,23.76
2017-08-26T09:02:02.215Z,23.88
2017-08-26T09:03:16.841Z,23.84
2017-08-26T09:04:01.950Z,23.72
2017-08-26T09:05:01.973Z,23.54
2017-08-26T09:06:02.313Z,23.53
2017-08-26T09:07:02.033Z,23.51
2017-08-26T09:08:02.079Z,23.47
2017-08-26T09:09:02.405Z,23.48
2017-08-26T09:10:02.422Z,23.54
2017-08-26T09:11:02.459Z,23.47
2017-08-26T09:12:17.090Z,23.63
2017-08-26T09:13:02.196Z,23.57
2017-08-26T09:14:02.228Z,23.54
2017-08-26T09:15:02.555Z,23.6
2017-08-26T09:17:02.296Z,23.65
2017-08-26T09:18:02.332Z,23.54
2017-08-26T09:19:02.363Z,23.58
2017-08-26T09:20:02.371Z,23.55
2017-08-26T09:21:17.326Z,23.69
2017-08-26T09:22:02.732Z,23.7
2017-08-26T09:23:02.778Z,23.78
2017-08-26T09:24:17.082Z,23.91
2017-08-26T09:26:02.550Z,24.15
2017-08-26T09:27:17.478Z,24.15
2017-08-26T09:28:17.512Z,24.12
2017-08-26T09:30:02.643Z,24.25
2017-08-26T09:31:02.679Z,24.37
2017-08-26T09:32:03.005Z,24.4
2017-08-26T09:33:03.046Z,24.4
2017-08-26T09:34:03.070Z,24.45
2017-08-26T09:35:03.114Z,24.78
2017-08-26T09:36:03.121Z,24.95
2017-08-26T09:37:03.145Z,25.18
2017-08-26T09:38:03.188Z,25.39
2017-08-26T09:39:02.880Z,25.72
2017-08-26T09:40:03.218Z,25.75
2017-08-26T09:41:03.265Z,25.62
2017-08-26T09:42:03.302Z,25.76
2017-08-26T09:43:03.326Z,25.98
2017-08-26T09:44:17.940Z,26.02
2017-08-26T09:45:03.051Z,25.99
2017-08-26T09:46:03.391Z,25.76
2017-08-26T09:47:03.112Z,25.69
2017-08-26T09:48:03.448Z,25.75
2017-08-26T09:49:03.483Z,25.73
2017-08-26T09:50:03.520Z,25.76
2017-08-26T09:51:03.539Z,25.73
2017-08-26T09:52:03.251Z,25.54
2017-08-26T09:53:03.279Z,25.45
2017-08-26T09:54:03.304Z,25.36
2017-08-26T09:55:03.642Z,25.13
2017-08-26T09:56:03.682Z,24.96
2017-08-26T09:57:03.700Z,25.03
2017-08-26T09:58:03.424Z,25.21
2017-08-26T09:59:03.123Z,25.05
2017-08-26T10:00:18.385Z,24.6
2017-08-26T10:01:03.824Z,24.61
2017-08-26T10:02:03.846Z,24.58
2017-08-26T10:03:03.539Z,24.6
2017-08-26T10:05:03.611Z,24.76
2017-08-26T10:06:03.951Z,24.84
2017-08-26T10:07:03.970Z,25.08
2017-08-26T10:08:04.017Z,25.15
2017-08-26T10:10:04.043Z,24.96
2017-08-26T10:11:04.099Z,24.6
2017-08-26T10:12:04.120Z,24.53
2017-08-26T10:13:04.156Z,24.58
2017-08-26T10:14:04.153Z,24.67
2017-08-26T10:15:18.803Z,24.68
2017-08-26T10:16:03.905Z,24.58
2017-08-26T10:17:03.942Z,24.64
2017-08-26T10:18:04.292Z,24.68
2017-08-26T10:20:04.340Z,24.55
2017-08-26T10:21:04.353Z,24.58
2017-08-26T10:22:18.991Z,24.58
2017-08-26T10:23:04.410Z,24.62
2017-08-26T10:24:04.447Z,24.6
2017-08-26T10:25:19.065Z,24.52
2017-08-26T10:26:04.514Z,24.5
2017-08-26T10:27:04.535Z,24.61
2017-08-26T10:28:04.548Z,24.71
2017-08-26T10:29:04.577Z,24.77
2017-08-26T10:30:04.297Z,24.91
2017-08-26T10:31:04.316Z,25.24
2017-08-26T10:32:04.671Z,25.24
2017-08-26T10:33:04.692Z,25.33
2017-08-26T10:35:19.345Z,25.39
2017-08-26T10:36:04.450Z,25.42
2017-08-26T10:37:04.848Z,25.69
2017-08-26T10:38:04.821Z,25.77
2017-08-26T10:39:04.857Z,26.01
2017-08-26T10:40:04.551Z,26.05
2017-08-26T10:41:04.903Z,26.01
2017-08-26T10:42:19.530Z,26.23
2017-08-26T10:43:04.975Z,26.17
2017-08-26T10:44:04.680Z,25.99
2017-08-26T10:45:04.697Z,25.79
2017-08-26T10:46:04.730Z,25.82
2017-08-26T10:48:05.091Z,26.18
2017-08-26T10:49:05.130Z,26.3
2017-08-26T10:51:05.192Z,26.5
2017-08-26T10:52:19.812Z,26.39
2017-08-26T10:53:19.843Z,26.51
2017-08-26T10:54:05.254Z,26.48
2017-08-26T10:55:05.292Z,26.55
2017-08-26T10:56:04.999Z,26.43
2017-08-26T10:57:05.341Z,26.23
2017-08-26T10:58:05.380Z,25.91
2017-08-26T10:59:05.418Z,25.75
2017-08-26T11:00:05.120Z,25.47
2017-08-26T11:01:04.831Z,25.42
2017-08-26T11:04:05.548Z,25.8
2017-08-26T11:05:20.162Z,26.05
2017-08-26T11:06:05.593Z,26.26
2017-08-26T11:07:05.622Z,26.37
2017-08-26T11:08:05.663Z,26.62
2017-08-26T11:09:05.685Z,26.67
2017-08-26T11:10:05.402Z,26.76
2017-08-26T11:11:05.730Z,26.69
2017-08-26T11:12:05.442Z,26.8
2017-08-26T11:13:05.808Z,26.72
2017-08-26T11:14:05.811Z,26.92
2017-08-26T11:15:05.851Z,26.92
2017-08-26T11:16:05.871Z,26.81
2017-08-26T11:17:05.919Z,26.67
2017-08-26T11:18:05.621Z,26.95
2017-08-26T11:19:20.552Z,27.24
2017-08-26T11:20:06.004Z,27.24
2017-08-26T11:21:06.024Z,26.99
2017-08-26T11:22:06.071Z,27.07
2017-08-26T11:23:06.071Z,27.24
2017-08-26T11:24:06.115Z,27.29
2017-08-26T11:25:06.131Z,27.12
2017-08-26T11:26:06.167Z,27.18
2017-08-26T11:27:06.198Z,27.29
2017-08-26T11:28:06.214Z,27.43
2017-08-26T11:29:06.236Z,27.69
2017-08-26T11:30:20.874Z,27.54
2017-08-26T11:31:05.983Z,27.28
2017-08-26T11:32:06.330Z,26.99
2017-08-26T11:33:05.725Z,27.03
2017-08-26T11:34:06.399Z,27.03
2017-08-26T11:35:21.022Z,27.31
2017-08-26T11:36:21.057Z,27.39
2017-08-26T11:37:06.160Z,27.25
2017-08-26T11:39:06.531Z,27.39
2017-08-26T11:40:06.573Z,27.55
2017-08-26T11:41:06.573Z,27.44
2017-08-26T11:42:06.618Z,27.44
2017-08-26T11:43:21.246Z,27.32
2017-08-26T11:44:06.669Z,27.24
2017-08-26T11:45:06.704Z,27.24
2017-08-26T11:46:06.723Z,27.13
2017-08-26T11:47:06.776Z,27.24
2017-08-26T11:49:06.834Z,27.36
2017-08-26T11:50:21.444Z,27.27
2017-08-26T11:51:06.885Z,27.18
2017-08-26T11:52:06.591Z,26.89
2017-08-26T11:53:06.622Z,26.67
2017-08-26T11:54:21.551Z,26.54
2017-08-26T11:55:06.678Z,26.5
2017-08-26T11:56:07.013Z,26.43
2017-08-26T11:57:07.050Z,26.47
2017-08-26T11:58:07.069Z,26.54
2017-08-26T12:00:06.503Z,26.47
2017-08-26T12:01:07.174Z,26.4
2017-08-26T12:02:07.175Z,26.43
2017-08-26T12:03:06.896Z,26.5
2017-08-26T12:04:07.247Z,26.44
2017-08-26T12:06:07.336Z,26.35
2017-08-26T12:07:07.328Z,26.3
2017-08-26T12:08:07.369Z,26.28
2017-08-26T12:09:07.387Z,26.35
2017-08-26T12:10:07.087Z,26.29
2017-08-26T12:11:07.442Z,26.1
2017-08-26T12:12:07.491Z,26.05
2017-08-26T12:13:07.501Z,26.37
2017-08-26T12:14:07.524Z,26.54
2017-08-26T12:15:07.238Z,26.55
2017-08-26T12:16:22.185Z,26.7
2017-08-26T12:17:07.620Z,26.91
2017-08-26T12:18:07.312Z,26.87
2017-08-26T12:19:07.676Z,27
2017-08-26T12:20:07.692Z,26.77
2017-08-26T12:21:07.727Z,26.55
2017-08-26T12:22:22.357Z,26.63
2017-08-26T12:23:07.792Z,26.6
2017-08-26T12:24:07.799Z,26.54
2017-08-26T12:25:07.837Z,26.44
2017-08-26T12:26:07.859Z,26.44
2017-08-26T12:27:07.903Z,26.47
2017-08-26T12:28:07.909Z,26.4
2017-08-26T12:29:07.957Z,26.48
2017-08-26T12:30:07.990Z,26.69
2017-08-26T12:31:08.011Z,26.75
2017-08-26T12:32:08.038Z,26.55
2017-08-26T12:33:08.056Z,26.55
2017-08-26T12:34:08.103Z,26.52
2017-08-26T12:35:08.116Z,26.55
2017-08-26T12:36:08.145Z,26.58
2017-08-26T12:37:08.173Z,26.39
2017-08-26T12:38:22.805Z,26.47
2017-08-26T12:39:08.262Z,26.43
2017-08-26T12:40:08.250Z,26.57
2017-08-26T12:41:08.292Z,26.52
2017-08-26T12:42:08.320Z,26.45
2017-08-26T12:43:08.343Z,26.39
2017-08-26T12:44:08.354Z,26.29
2017-08-26T12:45:08.421Z,26.1
2017-08-26T12:46:08.434Z,26.06
2017-08-26T12:47:08.455Z,25.94
2017-08-26T12:48:23.089Z,26.2
2017-08-26T12:50:08.535Z,26.62
2017-08-26T12:51:08.572Z,26.63
2017-08-26T12:52:08.273Z,26.51
2017-08-26T12:53:08.647Z,26.45
2017-08-26T12:54:23.252Z,26.55
2017-08-26T12:55:08.686Z,26.44
2017-08-26T12:57:08.725Z,26.51
2017-08-26T12:58:08.783Z,26.47
2017-08-26T12:59:08.803Z,26.43
2017-08-26T13:00:08.818Z,26.44
2017-08-26T13:01:08.854Z,26.44
2017-08-26T13:02:08.895Z,26.47
2017-08-26T13:03:08.896Z,26.39
2017-08-26T13:04:08.933Z,26.45
2017-08-26T13:05:23.558Z,26.45
2017-08-26T13:06:09.004Z,26.54
2017-08-26T13:07:08.706Z,26.67
2017-08-26T13:11:09.119Z,26.65
2017-08-26T13:12:08.855Z,26.54
2017-08-26T13:13:09.175Z,26.67
2017-08-26T13:14:09.218Z,26.75
2017-08-26T13:15:08.933Z,26.67
2017-08-26T13:16:08.625Z,26.69
2017-08-26T13:17:09.307Z,26.73
2017-08-26T13:18:09.330Z,26.62
2017-08-26T13:19:09.361Z,26.45
2017-08-26T13:20:09.056Z,26.39
2017-08-26T13:21:24.008Z,26.48
2017-08-26T13:23:09.467Z,26.33
2017-08-26T13:25:24.126Z,26.51
2017-08-26T13:26:24.143Z,26.51
2017-08-26T13:27:09.585Z,26.4
2017-08-26T13:28:09.280Z,26.54
2017-08-26T13:30:09.664Z,26.62
2017-08-26T13:31:09.376Z,26.58
2017-08-26T13:32:09.702Z,26.62
2017-08-26T13:33:09.789Z,26.44
2017-08-26T13:34:09.764Z,26.35
2017-08-26T13:35:09.811Z,26.3
2017-08-26T13:36:09.824Z,26.39
2017-08-26T13:37:09.865Z,26.36
2017-08-26T13:38:09.558Z,26.54
2017-08-26T13:39:09.932Z,26.45
2017-08-26T13:40:09.941Z,26.48
2017-08-26T13:41:09.976Z,26.47
2017-08-26T13:42:09.688Z,26.6
2017-08-26T13:43:10.024Z,26.7
2017-08-26T13:44:10.081Z,26.69
2017-08-26T13:45:24.689Z,26.73
2017-08-26T13:46:10.119Z,26.69
2017-08-26T13:47:10.138Z,26.55